SEJ257 VOBL-VOPB
Flight info
| Callsign | SEJ257 |
|---|---|
| Flight time | 1h 23m |
| Altitude | 35000 |
| Route | TULNA7B TULNA W116 MMV P761 LEGIN L510 NIMOV |
| Aircraft | B738/M-SDE2E3FGHIRWXY/LB1 |
Departure
| Time | 2026-04-21 07:27 |
|---|---|
| Airport | Kempegowda International Airport Bengaluru (VOBL) |
Arrival
| Time | 2026-04-21 08:50 |
|---|---|
| Airport | Veer Savarkar International Airport / INS Utkrosh (VOPB) |
| Time | Latitude | Longitude | Altitude | Speed | Heading |
|---|---|---|---|---|---|
| 2026-04-21 07:04 | 13.20164 | 77.70918 | 3010 ft | 0 kts | 180° |
| 2026-04-21 07:16 | 13.20168 | 77.70918 | 3010 ft | 3 kts | 180° |
| 2026-04-21 07:16 | 13.20194 | 77.70915 | 3010 ft | 4 kts | 165° |
| 2026-04-21 07:16 | 13.20219 | 77.70905 | 3015 ft | 4 kts | 143° |
| 2026-04-21 07:17 | 13.20237 | 77.70886 | 3014 ft | 4 kts | 115° |
| 2026-04-21 07:17 | 13.20243 | 77.70862 | 3014 ft | 2 kts | 91° |
| 2026-04-21 07:17 | 13.20243 | 77.70861 | 3014 ft | 1 kts | 90° |
| 2026-04-21 07:20 | 13.20243 | 77.70862 | 3010 ft | 1 kts | 91° |
| 2026-04-21 07:21 | 13.20243 | 77.70875 | 3010 ft | 5 kts | 91° |
| 2026-04-21 07:21 | 13.20243 | 77.70934 | 3010 ft | 12 kts | 89° |
| 2026-04-21 07:21 | 13.20243 | 77.71028 | 3010 ft | 13 kts | 89° |
| 2026-04-21 07:21 | 13.20241 | 77.71121 | 3010 ft | 13 kts | 90° |
| 2026-04-21 07:22 | 13.20240 | 77.71211 | 3010 ft | 12 kts | 90° |
| 2026-04-21 07:22 | 13.20240 | 77.71226 | 3010 ft | 0 kts | 90° |
| 2026-04-21 07:22 | 13.20240 | 77.71232 | 3010 ft | 3 kts | 90° |
| 2026-04-21 07:23 | 13.20260 | 77.71273 | 3010 ft | 11 kts | 27° |
| 2026-04-21 07:23 | 13.20348 | 77.71276 | 3010 ft | 13 kts | 0° |
| 2026-04-21 07:23 | 13.20440 | 77.71277 | 3010 ft | 13 kts | 1° |
| 2026-04-21 07:23 | 13.20518 | 77.71307 | 3012 ft | 13 kts | 63° |
| 2026-04-21 07:24 | 13.20524 | 77.71396 | 3010 ft | 12 kts | 91° |
| 2026-04-21 07:24 | 13.20523 | 77.71483 | 3010 ft | 12 kts | 90° |
| 2026-04-21 07:24 | 13.20522 | 77.71569 | 3011 ft | 13 kts | 90° |
| 2026-04-21 07:24 | 13.20521 | 77.71668 | 3011 ft | 15 kts | 91° |
| 2026-04-21 07:25 | 13.20519 | 77.71785 | 3011 ft | 18 kts | 90° |
| 2026-04-21 07:25 | 13.20518 | 77.71919 | 3011 ft | 20 kts | 90° |
| 2026-04-21 07:25 | 13.20518 | 77.72065 | 3011 ft | 21 kts | 90° |
| 2026-04-21 07:25 | 13.20516 | 77.72213 | 3011 ft | 15 kts | 91° |
| 2026-04-21 07:26 | 13.20573 | 77.72285 | 3011 ft | 15 kts | 4° |
| 2026-04-21 07:26 | 13.20668 | 77.72286 | 3014 ft | 12 kts | 358° |
| 2026-04-21 07:26 | 13.20690 | 77.72239 | 3011 ft | 8 kts | 270° |
| 2026-04-21 07:26 | 13.20690 | 77.72147 | 3011 ft | 35 kts | 270° |
| 2026-04-21 07:27 | 13.20695 | 77.71586 | 3010 ft | 120 kts | 270° |
| 2026-04-21 07:27 | 13.20699 | 77.70478 | 3031 ft | 188 kts | 272° |
| 2026-04-21 07:27 | 13.20740 | 77.69066 | 3792 ft | 203 kts | 272° |
| 2026-04-21 07:27 | 13.20916 | 77.67688 | 4914 ft | 198 kts | 291° |
| 2026-04-21 07:28 | 13.21658 | 77.66421 | 5542 ft | 215 kts | 304° |
| 2026-04-21 07:28 | 13.22541 | 77.65110 | 5913 ft | 233 kts | 307° |
| 2026-04-21 07:28 | 13.23525 | 77.63712 | 6261 ft | 249 kts | 306° |
| 2026-04-21 07:28 | 13.24418 | 77.62192 | 6856 ft | 253 kts | 302° |
| 2026-04-21 07:29 | 13.25338 | 77.60590 | 7211 ft | 265 kts | 303° |
| 2026-04-21 07:29 | 13.26280 | 77.58975 | 7932 ft | 261 kts | 303° |
| 2026-04-21 07:29 | 13.27164 | 77.57396 | 8598 ft | 262 kts | 302° |
| 2026-04-21 07:29 | 13.28388 | 77.55963 | 8950 ft | 268 kts | 332° |
| 2026-04-21 07:30 | 13.30132 | 77.55506 | 9514 ft | 264 kts | 6° |
| 2026-04-21 07:30 | 13.31859 | 77.56019 | 10193 ft | 258 kts | 32° |
| 2026-04-21 07:30 | 13.33206 | 77.57258 | 10623 ft | 271 kts | 56° |
| 2026-04-21 07:30 | 13.34007 | 77.59107 | 10816 ft | 298 kts | 76° |
| 2026-04-21 07:31 | 13.34196 | 77.61311 | 10974 ft | 325 kts | 95° |
| 2026-04-21 07:31 | 13.33708 | 77.63631 | 11420 ft | 339 kts | 104° |
| 2026-04-21 07:31 | 13.33052 | 77.65973 | 12117 ft | 343 kts | 105° |
| 2026-04-21 07:31 | 13.32374 | 77.68326 | 12899 ft | 345 kts | 105° |
| 2026-04-21 07:32 | 13.31708 | 77.70698 | 13612 ft | 347 kts | 105° |
| 2026-04-21 07:32 | 13.31058 | 77.73096 | 13953 ft | 350 kts | 104° |
| 2026-04-21 07:32 | 13.30429 | 77.75482 | 14000 ft | 351 kts | 104° |
| 2026-04-21 07:32 | 13.29807 | 77.77900 | 14017 ft | 351 kts | 104° |
| 2026-04-21 07:33 | 13.29192 | 77.80330 | 14022 ft | 351 kts | 104° |
| 2026-04-21 07:33 | 13.28582 | 77.82761 | 14009 ft | 352 kts | 103° |
| 2026-04-21 07:33 | 13.27975 | 77.85193 | 14009 ft | 352 kts | 103° |
| 2026-04-21 07:33 | 13.27370 | 77.87624 | 14008 ft | 352 kts | 103° |
| 2026-04-21 07:34 | 13.26765 | 77.90057 | 14009 ft | 352 kts | 103° |
| 2026-04-21 07:34 | 13.26161 | 77.92489 | 14007 ft | 352 kts | 103° |
| 2026-04-21 07:34 | 13.25556 | 77.94924 | 14021 ft | 354 kts | 103° |
| 2026-04-21 07:34 | 13.24941 | 77.97398 | 14444 ft | 361 kts | 104° |
| 2026-04-21 07:35 | 13.24327 | 77.99867 | 15106 ft | 363 kts | 104° |
| 2026-04-21 07:35 | 13.23701 | 78.02385 | 15730 ft | 366 kts | 104° |
| 2026-04-21 07:35 | 13.23066 | 78.04937 | 16300 ft | 372 kts | 104° |
| 2026-04-21 07:35 | 13.22420 | 78.07530 | 16853 ft | 377 kts | 104° |
| 2026-04-21 07:36 | 13.21766 | 78.10156 | 17386 ft | 382 kts | 104° |
| 2026-04-21 07:36 | 13.21103 | 78.12816 | 17929 ft | 387 kts | 105° |
| 2026-04-21 07:36 | 13.20430 | 78.15513 | 18423 ft | 392 kts | 105° |
| 2026-04-21 07:36 | 13.19750 | 78.18239 | 18893 ft | 396 kts | 105° |
| 2026-04-21 07:37 | 13.19064 | 78.20987 | 19379 ft | 399 kts | 105° |
| 2026-04-21 07:37 | 13.18372 | 78.23759 | 19853 ft | 403 kts | 105° |
| 2026-04-21 07:37 | 13.17682 | 78.26518 | 20296 ft | 406 kts | 105° |
| 2026-04-21 07:37 | 13.16977 | 78.29338 | 20752 ft | 410 kts | 105° |
| 2026-04-21 07:38 | 13.16266 | 78.32182 | 21202 ft | 414 kts | 105° |
| 2026-04-21 07:38 | 13.15547 | 78.35056 | 21650 ft | 417 kts | 106° |
| 2026-04-21 07:38 | 13.14823 | 78.37948 | 22095 ft | 421 kts | 106° |
| 2026-04-21 07:38 | 13.14092 | 78.40867 | 22523 ft | 424 kts | 106° |
| 2026-04-21 07:39 | 13.13356 | 78.43805 | 22951 ft | 427 kts | 106° |
| 2026-04-21 07:39 | 13.12612 | 78.46770 | 23370 ft | 431 kts | 106° |
| 2026-04-21 07:39 | 13.11873 | 78.49718 | 23737 ft | 434 kts | 106° |
| 2026-04-21 07:39 | 13.11117 | 78.52728 | 24073 ft | 437 kts | 106° |
| 2026-04-21 07:40 | 13.10356 | 78.55759 | 24412 ft | 440 kts | 107° |
| 2026-04-21 07:40 | 13.09590 | 78.58810 | 24743 ft | 444 kts | 107° |
| 2026-04-21 07:40 | 13.08816 | 78.61886 | 25069 ft | 447 kts | 107° |
| 2026-04-21 07:40 | 13.08044 | 78.64958 | 25387 ft | 450 kts | 107° |
| 2026-04-21 07:41 | 13.07258 | 78.68080 | 25701 ft | 453 kts | 107° |
| 2026-04-21 07:41 | 13.06464 | 78.71235 | 26059 ft | 454 kts | 107° |
| 2026-04-21 07:41 | 13.05677 | 78.74359 | 26391 ft | 457 kts | 107° |
| 2026-04-21 07:41 | 13.04885 | 78.77502 | 26666 ft | 460 kts | 107° |
| 2026-04-21 07:42 | 13.04075 | 78.80716 | 26940 ft | 464 kts | 107° |
| 2026-04-21 07:42 | 13.03272 | 78.83898 | 27211 ft | 467 kts | 107° |
| 2026-04-21 07:42 | 13.02458 | 78.87125 | 27493 ft | 470 kts | 107° |
| 2026-04-21 07:42 | 13.01630 | 78.90401 | 27779 ft | 472 kts | 107° |
| 2026-04-21 07:43 | 13.00809 | 78.93651 | 28057 ft | 475 kts | 107° |
| 2026-04-21 07:43 | 12.99975 | 78.96950 | 28322 ft | 478 kts | 108° |
| 2026-04-21 07:43 | 12.99147 | 79.00227 | 28569 ft | 481 kts | 108° |
| 2026-04-21 07:43 | 12.98309 | 79.03539 | 28819 ft | 483 kts | 108° |
| 2026-04-21 07:44 | 12.97465 | 79.06876 | 29068 ft | 486 kts | 107° |
| 2026-04-21 07:44 | 12.96840 | 79.10309 | 29327 ft | 492 kts | 99° |
| 2026-04-21 07:44 | 12.96724 | 79.13825 | 29563 ft | 497 kts | 91° |
| 2026-04-21 07:44 | 12.96812 | 79.17397 | 29802 ft | 500 kts | 90° |
| 2026-04-21 07:45 | 12.96931 | 79.20923 | 30002 ft | 503 kts | 90° |
| 2026-04-21 07:45 | 12.97052 | 79.24524 | 30200 ft | 505 kts | 90° |
| 2026-04-21 07:45 | 12.97161 | 79.28149 | 30429 ft | 505 kts | 91° |
| 2026-04-21 07:45 | 12.97252 | 79.31699 | 30701 ft | 505 kts | 91° |
| 2026-04-21 07:46 | 12.97332 | 79.35280 | 31046 ft | 503 kts | 91° |
| 2026-04-21 07:46 | 12.97406 | 79.38887 | 31425 ft | 500 kts | 92° |
| 2026-04-21 07:46 | 12.97475 | 79.42445 | 31788 ft | 498 kts | 92° |
| 2026-04-21 07:46 | 12.97542 | 79.45999 | 32119 ft | 497 kts | 92° |
| 2026-04-21 07:47 | 12.97607 | 79.49494 | 32442 ft | 496 kts | 92° |
| 2026-04-21 07:47 | 12.97674 | 79.53020 | 32748 ft | 496 kts | 92° |
| 2026-04-21 07:47 | 12.97740 | 79.56545 | 33061 ft | 495 kts | 93° |
| 2026-04-21 07:47 | 12.97808 | 79.60095 | 33387 ft | 494 kts | 93° |
| 2026-04-21 07:48 | 12.97874 | 79.63606 | 33722 ft | 493 kts | 93° |
| 2026-04-21 07:48 | 12.97940 | 79.67107 | 34028 ft | 492 kts | 93° |
| 2026-04-21 07:48 | 12.98005 | 79.70589 | 34322 ft | 491 kts | 93° |
| 2026-04-21 07:48 | 12.98070 | 79.74078 | 34620 ft | 489 kts | 94° |
| 2026-04-21 07:49 | 12.98134 | 79.77546 | 34871 ft | 490 kts | 94° |
| 2026-04-21 07:49 | 12.98196 | 79.81058 | 34858 ft | 494 kts | 94° |
| 2026-04-21 07:49 | 12.98323 | 79.88072 | 34860 ft | 491 kts | 94° |
| 2026-04-21 07:50 | 12.98449 | 79.95008 | 34872 ft | 485 kts | 94° |
| 2026-04-21 07:50 | 12.98569 | 80.01944 | 34884 ft | 485 kts | 94° |
| 2026-04-21 07:51 | 12.98686 | 80.08805 | 34886 ft | 485 kts | 94° |
| 2026-04-21 07:51 | 12.98791 | 80.15747 | 34883 ft | 485 kts | 96° |
| 2026-04-21 07:52 | 12.98331 | 80.22600 | 34887 ft | 481 kts | 101° |
| 2026-04-21 07:52 | 12.97628 | 80.29409 | 34881 ft | 481 kts | 101° |
| 2026-04-21 07:53 | 12.96941 | 80.36228 | 34876 ft | 482 kts | 101° |
| 2026-04-21 07:53 | 12.96301 | 80.43047 | 34868 ft | 482 kts | 100° |
| 2026-04-21 07:54 | 12.95682 | 80.49856 | 34862 ft | 482 kts | 100° |
| 2026-04-21 07:54 | 12.95060 | 80.56702 | 34855 ft | 482 kts | 99° |
| 2026-04-21 07:55 | 12.94437 | 80.63527 | 34864 ft | 481 kts | 100° |
| 2026-04-21 07:55 | 12.93812 | 80.70339 | 34863 ft | 481 kts | 100° |
| 2026-04-21 07:56 | 12.93182 | 80.77178 | 34870 ft | 480 kts | 100° |
| 2026-04-21 07:56 | 12.92555 | 80.83960 | 34862 ft | 480 kts | 100° |
| 2026-04-21 07:57 | 12.91923 | 80.90779 | 34870 ft | 479 kts | 100° |
| 2026-04-21 07:57 | 12.91295 | 80.97539 | 34877 ft | 479 kts | 99° |
| 2026-04-21 07:58 | 12.90662 | 81.04330 | 34878 ft | 479 kts | 99° |
| 2026-04-21 07:58 | 12.90030 | 81.11095 | 34874 ft | 478 kts | 99° |
| 2026-04-21 07:59 | 12.89396 | 81.17865 | 34876 ft | 478 kts | 99° |
| 2026-04-21 07:59 | 12.88759 | 81.24638 | 34881 ft | 478 kts | 99° |
| 2026-04-21 08:00 | 12.88118 | 81.31440 | 34876 ft | 478 kts | 99° |
| 2026-04-21 08:00 | 12.87481 | 81.38178 | 34882 ft | 478 kts | 99° |
| 2026-04-21 08:01 | 12.86839 | 81.44958 | 34881 ft | 478 kts | 99° |
| 2026-04-21 08:02 | 12.85872 | 81.55118 | 34882 ft | 479 kts | 99° |
| 2026-04-21 08:02 | 12.85226 | 81.61894 | 34882 ft | 479 kts | 99° |
| 2026-04-21 08:03 | 12.84575 | 81.68701 | 34892 ft | 479 kts | 99° |
| 2026-04-21 08:03 | 12.83924 | 81.75484 | 34878 ft | 478 kts | 99° |
| 2026-04-21 08:04 | 12.83273 | 81.82259 | 34879 ft | 477 kts | 99° |
| 2026-04-21 08:04 | 12.82626 | 81.88971 | 34882 ft | 475 kts | 99° |
| 2026-04-21 08:05 | 12.81973 | 81.95720 | 34879 ft | 474 kts | 99° |
| 2026-04-21 08:05 | 12.81324 | 82.02419 | 34879 ft | 473 kts | 99° |
| 2026-04-21 08:06 | 12.80677 | 82.09072 | 34881 ft | 472 kts | 99° |
| 2026-04-21 08:06 | 12.80024 | 82.15766 | 34884 ft | 472 kts | 99° |
| 2026-04-21 08:07 | 12.79371 | 82.22438 | 34883 ft | 472 kts | 99° |
| 2026-04-21 08:07 | 12.78714 | 82.29143 | 34884 ft | 472 kts | 99° |
| 2026-04-21 08:08 | 12.78059 | 82.35807 | 34887 ft | 472 kts | 99° |
| 2026-04-21 08:08 | 12.77398 | 82.42517 | 34884 ft | 473 kts | 99° |
| 2026-04-21 08:09 | 12.76739 | 82.49186 | 34886 ft | 473 kts | 99° |
| 2026-04-21 08:09 | 12.76076 | 82.55888 | 34884 ft | 474 kts | 99° |
| 2026-04-21 08:10 | 12.75407 | 82.62622 | 34887 ft | 475 kts | 99° |
| 2026-04-21 08:10 | 12.74738 | 82.69342 | 34883 ft | 476 kts | 99° |
| 2026-04-21 08:11 | 12.74063 | 82.76104 | 34884 ft | 476 kts | 99° |
| 2026-04-21 08:11 | 12.73389 | 82.82843 | 34884 ft | 476 kts | 99° |
| 2026-04-21 08:12 | 12.72718 | 82.89536 | 34885 ft | 476 kts | 99° |
| 2026-04-21 08:12 | 12.72040 | 82.96281 | 34889 ft | 476 kts | 99° |
| 2026-04-21 08:13 | 12.71358 | 83.03039 | 34890 ft | 475 kts | 99° |
| 2026-04-21 08:13 | 12.70680 | 83.09747 | 34888 ft | 475 kts | 99° |
| 2026-04-21 08:14 | 12.69999 | 83.16472 | 34882 ft | 474 kts | 99° |
| 2026-04-21 08:14 | 12.69318 | 83.23170 | 34889 ft | 473 kts | 99° |
| 2026-04-21 08:15 | 12.68640 | 83.29833 | 34881 ft | 472 kts | 99° |
| 2026-04-21 08:15 | 12.67959 | 83.36501 | 34885 ft | 471 kts | 99° |
| 2026-04-21 08:16 | 12.67278 | 83.43154 | 34887 ft | 470 kts | 99° |
| 2026-04-21 08:16 | 12.66596 | 83.49799 | 34890 ft | 469 kts | 99° |
| 2026-04-21 08:17 | 12.65915 | 83.56424 | 34876 ft | 470 kts | 99° |
| 2026-04-21 08:17 | 12.65246 | 83.63107 | 34889 ft | 470 kts | 98° |
| 2026-04-21 08:18 | 12.64590 | 83.69737 | 34890 ft | 471 kts | 98° |
| 2026-04-21 08:18 | 12.63927 | 83.76419 | 34892 ft | 473 kts | 98° |
| 2026-04-21 08:19 | 12.63260 | 83.83097 | 34889 ft | 474 kts | 99° |
| 2026-04-21 08:19 | 12.62585 | 83.89838 | 34889 ft | 475 kts | 99° |
| 2026-04-21 08:20 | 12.61911 | 83.96546 | 34896 ft | 475 kts | 99° |
| 2026-04-21 08:20 | 12.61236 | 84.03255 | 34887 ft | 474 kts | 99° |
| 2026-04-21 08:21 | 12.60560 | 84.09949 | 34888 ft | 473 kts | 99° |
| 2026-04-21 08:21 | 12.59888 | 84.16588 | 34889 ft | 471 kts | 99° |
| 2026-04-21 08:22 | 12.59211 | 84.23256 | 34892 ft | 470 kts | 99° |
| 2026-04-21 08:22 | 12.58535 | 84.29906 | 34890 ft | 469 kts | 99° |
| 2026-04-21 08:23 | 12.57859 | 84.36536 | 34893 ft | 468 kts | 99° |
| 2026-04-21 08:23 | 12.57181 | 84.43162 | 34893 ft | 468 kts | 99° |
| 2026-04-21 08:24 | 12.56507 | 84.49735 | 34892 ft | 467 kts | 99° |
| 2026-04-21 08:24 | 12.55827 | 84.56353 | 34893 ft | 468 kts | 99° |
| 2026-04-21 08:25 | 12.55145 | 84.62976 | 34894 ft | 468 kts | 99° |
| 2026-04-21 08:25 | 12.54577 | 84.68480 | 34892 ft | 468 kts | 99° |
| 2026-04-21 08:26 | 12.16363 | 87.11820 | 34885 ft | 27709 kts | 99° |
| 2026-04-21 08:26 | 12.09415 | 88.96644 | 34852 ft | 27682 kts | 99° |
| 2026-04-21 08:26 | 11.81623 | 90.90929 | 34839 ft | 32000 kts | 99° |
| 2026-04-21 08:26 | 11.88410 | 90.92046 | 34561 ft | 0 kts | 99° |
| 2026-04-21 08:27 | 11.88181 | 90.93674 | 34659 ft | 465 kts | 97° |
| 2026-04-21 08:27 | 11.88333 | 90.96967 | 34650 ft | 463 kts | 83° |
| 2026-04-21 08:27 | 11.88389 | 91.00165 | 34690 ft | 442 kts | 101° |
| 2026-04-21 08:27 | 11.87392 | 91.03064 | 34487 ft | 428 kts | 123° |
| 2026-04-21 08:28 | 11.85621 | 91.05447 | 34337 ft | 418 kts | 132° |
| 2026-04-21 08:28 | 11.83756 | 91.07743 | 34073 ft | 424 kts | 128° |
| 2026-04-21 08:28 | 11.82016 | 91.10200 | 33816 ft | 431 kts | 125° |
| 2026-04-21 08:28 | 11.80319 | 91.12745 | 33513 ft | 435 kts | 124° |
| 2026-04-21 08:29 | 11.78643 | 91.15312 | 33198 ft | 435 kts | 124° |
| 2026-04-21 08:29 | 11.76981 | 91.17859 | 32702 ft | 440 kts | 124° |
| 2026-04-21 08:29 | 11.75274 | 91.20460 | 32223 ft | 442 kts | 124° |
| 2026-04-21 08:29 | 11.73563 | 91.23048 | 31736 ft | 438 kts | 124° |
| 2026-04-21 08:30 | 11.71859 | 91.25611 | 31210 ft | 436 kts | 125° |
| 2026-04-21 08:30 | 11.70152 | 91.28168 | 30701 ft | 435 kts | 125° |
| 2026-04-21 08:30 | 11.68448 | 91.30716 | 30202 ft | 434 kts | 125° |
| 2026-04-21 08:30 | 11.66746 | 91.33259 | 29659 ft | 433 kts | 125° |
| 2026-04-21 08:31 | 11.65049 | 91.35792 | 29086 ft | 432 kts | 125° |
| 2026-04-21 08:31 | 11.63362 | 91.38312 | 28527 ft | 430 kts | 125° |
| 2026-04-21 08:31 | 11.61679 | 91.40824 | 27977 ft | 428 kts | 125° |
| 2026-04-21 08:31 | 11.60026 | 91.43292 | 27441 ft | 426 kts | 125° |
| 2026-04-21 08:32 | 11.58361 | 91.45779 | 26906 ft | 424 kts | 125° |
| 2026-04-21 08:32 | 11.56705 | 91.48250 | 26386 ft | 421 kts | 125° |
| 2026-04-21 08:32 | 11.55054 | 91.50713 | 25876 ft | 419 kts | 125° |
| 2026-04-21 08:32 | 11.53413 | 91.53161 | 25369 ft | 417 kts | 125° |
| 2026-04-21 08:33 | 11.51783 | 91.55592 | 24874 ft | 415 kts | 125° |
| 2026-04-21 08:33 | 11.50160 | 91.58012 | 24386 ft | 412 kts | 125° |
| 2026-04-21 08:33 | 11.48546 | 91.60418 | 23905 ft | 410 kts | 125° |
| 2026-04-21 08:33 | 11.46941 | 91.62810 | 23431 ft | 408 kts | 125° |
| 2026-04-21 08:34 | 11.45367 | 91.65156 | 22872 ft | 405 kts | 125° |
| 2026-04-21 08:34 | 11.43779 | 91.67521 | 22318 ft | 403 kts | 125° |
| 2026-04-21 08:34 | 11.42200 | 91.69874 | 21771 ft | 401 kts | 125° |
| 2026-04-21 08:34 | 11.40632 | 91.72208 | 21236 ft | 398 kts | 125° |
| 2026-04-21 08:35 | 11.39071 | 91.74533 | 20709 ft | 396 kts | 125° |
| 2026-04-21 08:35 | 11.37524 | 91.76841 | 20195 ft | 394 kts | 123° |
| 2026-04-21 08:35 | 11.36343 | 91.79346 | 19667 ft | 393 kts | 107° |
| 2026-04-21 08:35 | 11.35911 | 91.82081 | 19182 ft | 391 kts | 91° |
| 2026-04-21 08:36 | 11.36104 | 91.84837 | 18704 ft | 389 kts | 84° |
| 2026-04-21 08:36 | 11.36447 | 91.87565 | 18214 ft | 387 kts | 83° |
| 2026-04-21 08:36 | 11.36808 | 91.90238 | 17669 ft | 385 kts | 83° |
| 2026-04-21 08:36 | 11.37172 | 91.92930 | 17121 ft | 382 kts | 83° |
| 2026-04-21 08:37 | 11.37525 | 91.95608 | 16579 ft | 380 kts | 83° |
| 2026-04-21 08:37 | 11.37866 | 91.98271 | 16047 ft | 377 kts | 83° |
| 2026-04-21 08:37 | 11.38198 | 92.00912 | 15518 ft | 375 kts | 83° |
| 2026-04-21 08:37 | 11.38524 | 92.03541 | 15002 ft | 372 kts | 83° |
| 2026-04-21 08:38 | 11.38844 | 92.06149 | 14501 ft | 370 kts | 83° |
| 2026-04-21 08:38 | 11.39159 | 92.08725 | 13994 ft | 361 kts | 83° |
| 2026-04-21 08:38 | 11.39464 | 92.11221 | 13470 ft | 350 kts | 83° |
| 2026-04-21 08:38 | 11.39756 | 92.13612 | 12904 ft | 340 kts | 83° |
| 2026-04-21 08:39 | 11.40043 | 92.15971 | 12365 ft | 332 kts | 83° |
| 2026-04-21 08:39 | 11.40325 | 92.18279 | 11825 ft | 324 kts | 83° |
| 2026-04-21 08:39 | 11.40598 | 92.20522 | 11452 ft | 313 kts | 83° |
| 2026-04-21 08:39 | 11.40861 | 92.22690 | 11087 ft | 303 kts | 83° |
| 2026-04-21 08:40 | 11.41117 | 92.24793 | 10724 ft | 295 kts | 83° |
| 2026-04-21 08:40 | 11.41365 | 92.26837 | 10375 ft | 287 kts | 83° |
| 2026-04-21 08:40 | 11.41607 | 92.28832 | 10027 ft | 280 kts | 83° |
| 2026-04-21 08:40 | 11.41844 | 92.30782 | 9690 ft | 273 kts | 83° |
| 2026-04-21 08:41 | 11.42069 | 92.32634 | 9335 ft | 261 kts | 83° |
| 2026-04-21 08:41 | 11.42287 | 92.34440 | 8946 ft | 252 kts | 83° |
| 2026-04-21 08:41 | 11.42497 | 92.36174 | 8593 ft | 241 kts | 83° |
| 2026-04-21 08:41 | 11.42699 | 92.37842 | 8216 ft | 233 kts | 83° |
| 2026-04-21 08:42 | 11.42894 | 92.39456 | 7836 ft | 227 kts | 83° |
| 2026-04-21 08:42 | 11.43070 | 92.41040 | 7482 ft | 223 kts | 84° |
| 2026-04-21 08:42 | 11.43236 | 92.42610 | 7132 ft | 223 kts | 84° |
| 2026-04-21 08:42 | 11.43398 | 92.44178 | 6785 ft | 222 kts | 84° |
| 2026-04-21 08:43 | 11.43555 | 92.45724 | 6450 ft | 224 kts | 84° |
| 2026-04-21 08:43 | 11.43714 | 92.47314 | 6093 ft | 227 kts | 84° |
| 2026-04-21 08:43 | 11.43874 | 92.48917 | 5656 ft | 228 kts | 84° |
| 2026-04-21 08:43 | 11.44034 | 92.50523 | 5239 ft | 227 kts | 84° |
| 2026-04-21 08:44 | 11.44196 | 92.52122 | 4811 ft | 227 kts | 84° |
| 2026-04-21 08:44 | 11.44368 | 92.53722 | 4374 ft | 227 kts | 81° |
| 2026-04-21 08:44 | 11.44641 | 92.55302 | 3995 ft | 224 kts | 79° |
| 2026-04-21 08:44 | 11.44931 | 92.56844 | 3679 ft | 219 kts | 79° |
| 2026-04-21 08:45 | 11.45248 | 92.58311 | 3445 ft | 210 kts | 70° |
| 2026-04-21 08:45 | 11.46129 | 92.59425 | 3241 ft | 201 kts | 33° |
| 2026-04-21 08:45 | 11.47266 | 92.60205 | 3060 ft | 195 kts | 37° |
| 2026-04-21 08:45 | 11.48333 | 92.61043 | 2895 ft | 193 kts | 37° |
| 2026-04-21 08:46 | 11.49409 | 92.61871 | 2815 ft | 193 kts | 36° |
| 2026-04-21 08:46 | 11.50475 | 92.62679 | 2775 ft | 189 kts | 36° |
| 2026-04-21 08:46 | 11.51536 | 92.63479 | 2721 ft | 191 kts | 36° |
| 2026-04-21 08:46 | 11.52579 | 92.64264 | 2519 ft | 179 kts | 36° |
| 2026-04-21 08:47 | 11.53521 | 92.64974 | 2306 ft | 164 kts | 36° |
| 2026-04-21 08:47 | 11.54420 | 92.65651 | 2102 ft | 159 kts | 36° |
| 2026-04-21 08:47 | 11.55304 | 92.66317 | 1902 ft | 157 kts | 35° |
| 2026-04-21 08:47 | 11.56176 | 92.66973 | 1699 ft | 155 kts | 36° |
| 2026-04-21 08:48 | 11.57042 | 92.67625 | 1499 ft | 155 kts | 36° |
| 2026-04-21 08:48 | 11.57909 | 92.68278 | 1301 ft | 155 kts | 36° |
| 2026-04-21 08:48 | 11.58775 | 92.68930 | 1093 ft | 154 kts | 36° |
| 2026-04-21 08:48 | 11.59637 | 92.69579 | 918 ft | 155 kts | 36° |
| 2026-04-21 08:49 | 11.60499 | 92.70228 | 739 ft | 157 kts | 34° |
| 2026-04-21 08:49 | 11.61377 | 92.70896 | 533 ft | 159 kts | 36° |
| 2026-04-21 08:49 | 11.62258 | 92.71581 | 304 ft | 159 kts | 35° |
| 2026-04-21 08:49 | 11.63145 | 92.72241 | 102 ft | 157 kts | 34° |
| 2026-04-21 08:50 | 11.64020 | 92.72891 | 29 ft | 150 kts | 36° |
| 2026-04-21 08:50 | 11.64738 | 92.73428 | 22 ft | 99 kts | 36° |
| 2026-04-21 08:50 | 11.65045 | 92.73656 | 19 ft | 36 kts | 37° |
| 2026-04-21 08:50 | 11.65212 | 92.73784 | 13 ft | 12 kts | 34° |
| 2026-04-21 08:51 | 11.65293 | 92.73801 | 13 ft | 12 kts | 34° |
| 2026-04-21 08:51 | 11.65276 | 92.73835 | 13 ft | 7 kts | 211° |
| 2026-04-21 08:51 | 11.65238 | 92.73794 | 13 ft | 9 kts | 219° |
| 2026-04-21 08:51 | 11.65170 | 92.73749 | 14 ft | 14 kts | 213° |
| 2026-04-21 08:52 | 11.65082 | 92.73685 | 19 ft | 17 kts | 216° |
| 2026-04-21 08:52 | 11.65007 | 92.73629 | 21 ft | 9 kts | 216° |
| 2026-04-21 08:52 | 11.64945 | 92.73582 | 20 ft | 13 kts | 217° |
| 2026-04-21 08:52 | 11.64913 | 92.73516 | 19 ft | 10 kts | 288° |
| 2026-04-21 08:53 | 11.64959 | 92.73444 | 19 ft | 15 kts | 304° |
| 2026-04-21 08:53 | 11.64993 | 92.73365 | 18 ft | 7 kts | 231° |
| 2026-04-21 08:53 | 11.64942 | 92.73324 | 18 ft | 10 kts | 214° |
| 2026-04-21 08:53 | 11.64914 | 92.73335 | 19 ft | 5 kts | 124° |
| 2026-04-21 08:54 | 11.64906 | 92.73347 | 19 ft | 0 kts | 123° |
| 2026-04-21 08:55 | 11.64913 | 92.73337 | 19 ft | 0 kts | 305° |